Time;durP1;ratioP1;P1;durP2;ratioP2;P2;SDS_P1;SDS_P2;PMS_P1;PMS_P2;Temp;Humidity;BMP_temperature;BMP_pressure;BME280_temperature;BME280_humidity;BME280_pressure;Samples;Min_cycle;Max_cycle;Signal;HPM_P1;HPM_P2
2023/10/08 00:00:49;;;;;;;2.70;2.50;;;14.50;76.00;;;;;;5018856;28;20139;-89
2023/10/08 00:03:17;;;;;;;3.25;3.00;;;14.50;76.30;;;;;;5019152;28;20194;-92
2023/10/08 00:05:43;;;;;;;4.25;3.92;;;14.40;76.40;;;;;;5013932;28;20014;-92
2023/10/08 00:08:09;;;;;;;3.20;2.97;;;14.40;76.40;;;;;;5017391;28;20022;-90
2023/10/08 00:10:44;;;;;;;4.63;3.10;;;14.40;76.70;;;;;;5019454;28;20022;-93
2023/10/08 00:13:16;;;;;;;3.17;2.88;;;14.30;76.90;;;;;;5018055;28;20040;-91
2023/10/08 00:15:52;;;;;;;3.05;2.58;;;14.30;77.00;;;;;;5010706;28;20065;-91
2023/10/08 00:18:22;;;;;;;3.15;2.95;;;14.30;76.70;;;;;;5017544;28;20018;-90
2023/10/08 00:20:58;;;;;;;4.72;2.78;;;14.30;76.70;;;;;;5015640;28;20053;-89
2023/10/08 00:23:27;;;;;;;3.55;3.25;;;14.30;76.50;;;;;;4996430;28;20038;-89
2023/10/08 00:25:54;;;;;;;2.95;2.75;;;14.30;75.90;;;;;;4995624;28;20116;-91
2023/10/08 00:28:24;;;;;;;3.20;2.92;;;14.30;75.70;;;;;;5016111;28;20041;-91
2023/10/08 00:30:50;;;;;;;2.60;2.40;;;14.40;75.30;;;;;;5017280;28;20014;-91
2023/10/08 00:33:16;;;;;;;2.97;2.70;;;14.40;74.70;;;;;;5017689;28;20081;-89
2023/10/08 00:35:42;;;;;;;3.08;2.67;;;14.40;74.60;;;;;;5002518;28;20023;-92
2023/10/08 00:38:15;;;;;;;3.50;3.30;;;14.40;74.80;;;;;;5018020;28;20033;-91
2023/10/08 00:40:45;;;;;;;3.47;3.17;;;14.40;74.80;;;;;;5014475;28;20046;-91
2023/10/08 00:43:34;;;;;;;4.20;2.83;;;14.40;74.20;;;;;;5017534;28;20600;-91
2023/10/08 00:48:56;;;;;;;2.90;2.70;;;14.50;73.50;;;;;;5018378;28;20085;-90
2023/10/08 00:53:57;;;;;;;2.67;2.47;;;14.40;72.40;;;;;;5018530;28;20032;-90
2023/10/08 00:56:46;;;;;;;3.65;3.38;;;14.30;72.90;;;;;;5018485;28;20023;-92
2023/10/08 00:59:15;;;;;;;2.97;2.67;;;14.30;72.70;;;;;;5016263;28;20555;-91
2023/10/08 01:01:51;;;;;;;2.88;2.53;;;14.30;72.60;;;;;;5002718;28;20033;-91
2023/10/08 01:04:19;;;;;;;3.40;3.20;;;14.30;72.30;;;;;;4999293;28;20030;-91
2023/10/08 01:06:44;;;;;;;;;;;14.30;72.50;;;;;;5016763;28;20086;-91
2023/10/08 01:09:21;;;;;;;3.42;3.13;;;14.30;72.60;;;;;;5013274;28;19949;-91
2023/10/08 01:12:26;;;;;;;3.60;3.30;;;14.30;72.80;;;;;;5010587;28;20018;-90
2023/10/08 01:15:07;;;;;;;3.20;3.00;;;14.30;72.80;;;;;;5016104;28;20527;-91
2023/10/08 01:17:42;;;;;;;3.55;3.25;;;14.30;72.70;;;;;;5015441;28;20476;-91
2023/10/08 01:20:33;;;;;;;3.97;3.65;;;14.20;72.80;;;;;;5015636;28;20025;-90
2023/10/08 01:23:16;;;;;;;3.20;2.90;;;14.20;73.40;;;;;;5015469;28;20162;-89
2023/10/08 01:25:43;;;;;;;3.03;2.83;;;14.10;74.40;;;;;;5006357;28;20041;-92
2023/10/08 01:30:57;;;;;;;2.92;2.58;;;14.00;74.30;;;;;;5017904;28;20044;-91
2023/10/08 01:33:27;;;;;;;3.35;3.05;;;14.00;74.00;;;;;;5018084;28;20116;-92
2023/10/08 01:35:54;;;;;;;3.50;2.50;;;13.90;75.00;;;;;;5018054;28;20029;-91
2023/10/08 01:38:26;;;;;;;2.58;2.38;;;13.80;75.30;;;;;;5017182;28;20118;-90
2023/10/08 01:40:52;;;;;;;3.10;2.78;;;13.90;74.90;;;;;;5017325;28;20026;-91
2023/10/08 01:43:18;;;;;;;2.97;2.78;;;13.80;75.00;;;;;;5017046;28;20071;-89
2023/10/08 01:45:48;;;;;;;2.75;2.55;;;13.80;75.10;;;;;;5020065;28;20026;-92
2023/10/08 01:48:19;;;;;;;3.38;3.08;;;13.80;75.30;;;;;;5031743;28;20030;-92
2023/10/08 01:50:47;;;;;;;3.33;2.70;;;13.70;75.50;;;;;;5028726;28;20033;-91
2023/10/08 01:53:15;;;;;;;3.35;3.05;;;13.60;75.90;;;;;;5017301;28;20157;-91
2023/10/08 01:55:51;;;;;;;2.30;1.77;;;13.70;76.20;;;;;;5017763;28;20371;-92
2023/10/08 01:58:18;;;;;;;2.72;2.53;;;13.60;76.20;;;;;;4984206;28;20030;-90
2023/10/08 02:00:46;;;;;;;2.95;2.75;;;13.60;76.20;;;;;;5000039;28;20026;-89
2023/10/08 02:03:17;;;;;;;2.28;1.40;;;13.60;76.50;;;;;;5017643;28;20396;-90
2023/10/08 02:05:44;;;;;;;3.10;2.90;;;13.50;76.60;;;;;;5011675;28;20014;-91
2023/10/08 02:08:12;;;;;;;3.33;3.05;;;13.50;76.50;;;;;;5013772;28;20044;-91
2023/10/08 02:10:40;;;;;;;2.53;2.33;;;13.50;76.50;;;;;;5011091;28;20073;-91
2023/10/08 02:13:08;;;;;;;3.17;2.97;;;13.50;76.30;;;;;;5012244;28;20033;-91
2023/10/08 02:15:34;;;;;;;3.28;2.97;;;13.50;76.30;;;;;;5014888;28;20030;-90
2023/10/08 02:18:00;;;;;;;3.53;3.33;;;13.40;75.30;;;;;;4997825;28;20037;-90
2023/10/08 02:20:27;;;;;;;2.53;2.33;;;13.40;75.70;;;;;;5016405;28;20416;-89
2023/10/08 02:22:53;;;;;;;2.90;2.58;;;13.40;75.60;;;;;;5009722;28;20059;-91
2023/10/08 02:25:19;;;;;;;3.83;3.60;;;13.40;75.70;;;;;;5005301;28;20030;-91
2023/10/08 02:27:45;;;;;;;2.22;1.60;;;13.40;75.40;;;;;;5015980;28;20397;-91
2023/10/08 02:30:12;;;;;;;3.90;3.17;;;13.40;75.50;;;;;;5016482;28;20030;-90
2023/10/08 02:32:42;;;;;;;2.95;2.75;;;13.40;75.60;;;;;;5017772;28;20022;-92
2023/10/08 02:35:11;;;;;;;3.15;2.88;;;13.40;75.40;;;;;;5017724;28;20026;-91
2023/10/08 02:37:39;;;;;;;2.67;2.38;;;13.40;75.60;;;;;;5016069;28;20026;-91
2023/10/08 02:40:17;;;;;;;2.90;2.70;;;13.40;75.60;;;;;;5018359;28;20053;-92
2023/10/08 02:42:44;;;;;;;3.45;2.35;;;13.40;75.50;;;;;;5018935;28;20062;-93
2023/10/08 02:45:13;;;;;;;4.10;3.70;;;13.40;75.80;;;;;;5016146;28;20034;-91
2023/10/08 02:47:42;;;;;;;3.15;2.63;;;13.40;75.70;;;;;;5016002;28;20037;-90
2023/10/08 02:50:08;;;;;;;3.53;3.33;;;13.30;76.00;;;;;;5022614;28;20571;-90
2023/10/08 02:52:35;;;;;;;3.28;2.83;;;13.30;76.50;;;;;;5007116;28;20061;-91
2023/10/08 02:55:00;;;;;;;2.80;2.50;;;13.30;76.10;;;;;;5016272;28;20026;-89
2023/10/08 02:57:29;;;;;;;2.65;2.45;;;13.30;75.80;;;;;;4992728;28;20037;-91
2023/10/08 02:59:55;;;;;;;3.65;3.35;;;13.20;76.90;;;;;;5011064;28;20023;-90
2023/10/08 03:02:21;;;;;;;2.67;2.47;;;13.30;75.90;;;;;;4992670;28;20110;-90
2023/10/08 03:04:51;;;;;;;2.88;2.55;;;13.20;75.80;;;;;;5017902;28;20057;-89
2023/10/08 03:07:31;;;;;;;2.95;2.72;;;13.20;75.80;;;;;;4986901;28;20034;-91
2023/10/08 03:10:17;;;;;;;2.70;2.47;;;13.20;76.00;;;;;;5017547;28;20030;-91
2023/10/08 03:12:44;;;;;;;3.85;3.55;;;13.20;76.40;;;;;;5017827;28;20100;-91
2023/10/08 03:15:13;;;;;;;;;;;;;;;;;;;;;
2023/10/08 03:17:48;;;;;;;3.83;3.53;;;13.10;76.90;;;;;;5018561;28;20145;-92
2023/10/08 03:23:05;;;;;;;2.88;2.40;;;13.10;76.30;;;;;;5019148;28;20053;-91
2023/10/08 03:25:30;;;;;;;3.13;2.92;;;13.10;76.20;;;;;;5012712;28;20044;-91
2023/10/08 03:27:59;;;;;;;3.30;3.03;;;13.10;75.80;;;;;;5013251;28;20101;-91
2023/10/08 03:30:26;;;;;;;2.67;2.47;;;13.10;75.10;;;;;;5013404;28;20044;-91
2023/10/08 03:32:55;;;;;;;4.07;3.88;;;13.20;75.20;;;;;;5020333;28;20033;-91
2023/10/08 03:35:27;;;;;;;3.10;2.17;;;13.20;75.30;;;;;;5002832;28;20037;-91
2023/10/08 03:37:54;;;;;;;3.05;2.67;;;13.20;73.90;;;;;;5012863;28;20115;-91
2023/10/08 03:42:55;;;;;;;2.75;2.55;;;13.10;73.70;;;;;;5016873;28;20112;-91
2023/10/08 03:48:06;;;;;;;3.90;3.65;;;13.20;73.70;;;;;;5019109;28;20152;-91
2023/10/08 03:50:56;;;;;;;3.10;2.90;;;13.10;74.50;;;;;;5011031;28;20015;-90
2023/10/08 03:53:22;;;;;;;3.08;2.75;;;13.10;74.50;;;;;;5010712;28;20026;-92
2023/10/08 03:55:51;;;;;;;;;;;13.10;74.80;;;;;;5012597;28;20053;-91
2023/10/08 03:58:29;;;;;;;2.72;2.47;;;13.00;75.40;;;;;;5004339;28;19909;-90
2023/10/08 04:01:08;;;;;;;5.60;5.30;;;12.90;76.10;;;;;;5016783;28;20109;-93
2023/10/08 04:03:57;;;;;;;3.83;3.45;;;12.90;77.00;;;;;;5017509;28;20026;-91
2023/10/08 04:06:28;;;;;;;2.97;2.67;;;12.80;77.10;;;;;;5007649;28;20054;-91
2023/10/08 04:08:58;;;;;;;3.17;2.97;;;12.60;77.70;;;;;;5018241;28;20088;-91
2023/10/08 04:11:36;;;;;;;3.03;2.72;;;12.60;78.20;;;;;;5014055;28;20377;-93
2023/10/08 04:14:02;;;;;;;2.63;2.42;;;12.50;78.60;;;;;;5000207;28;20030;-90
2023/10/08 04:16:37;;;;;;;3.10;2.85;;;12.50;79.10;;;;;;5008026;28;20105;-93
2023/10/08 04:19:04;;;;;;;3.03;2.83;;;12.40;79.10;;;;;;4981268;28;20026;-89
2023/10/08 04:21:29;;;;;;;3.80;3.50;;;12.50;79.40;;;;;;5000058;28;20101;-90
2023/10/08 04:23:57;;;;;;;3.97;2.45;;;12.40;79.50;;;;;;5000863;28;20065;-90
2023/10/08 04:26:26;;;;;;;3.38;3.08;;;12.40;79.40;;;;;;5018909;28;20547;-90
2023/10/08 04:29:02;;;;;;;3.70;3.40;;;12.40;79.50;;;;;;5017400;28;20033;-90
2023/10/08 04:31:37;;;;;;;4.32;3.92;;;12.30;79.50;;;;;;5011330;28;20018;-92
2023/10/08 04:34:44;;;;;;;3.13;2.88;;;12.30;79.80;;;;;;5021776;28;20033;-91
2023/10/08 04:37:00;;;;;;;3.78;3.58;;;12.20;79.50;;;;;;5003838;28;20125;-89
2023/10/08 04:39:39;;;;;;;3.80;3.50;;;12.20;79.80;;;;;;5018257;28;20049;-92
2023/10/08 04:42:12;;;;;;;3.90;3.70;;;12.20;80.60;;;;;;4991810;28;20048;-90
2023/10/08 04:44:41;;;;;;;4.80;3.13;;;12.20;80.20;;;;;;5016716;28;20112;-91
2023/10/08 04:47:31;;;;;;;3.35;3.15;;;12.10;80.30;;;;;;5017239;28;20026;-91
2023/10/08 04:49:56;;;;;;;2.83;2.63;;;12.00;80.30;;;;;;5018008;28;20613;-91
2023/10/08 04:52:25;;;;;;;3.05;2.75;;;12.00;80.40;;;;;;5034049;28;20019;-91
2023/10/08 04:54:51;;;;;;;2.92;2.60;;;12.00;80.90;;;;;;5031038;28;20052;-91
2023/10/08 04:57:18;;;;;;;3.03;2.83;;;11.90;81.10;;;;;;5015036;28;20163;-91
2023/10/08 04:59:46;;;;;;;3.97;3.78;;;12.00;81.10;;;;;;5016499;28;20037;-92
2023/10/08 05:02:18;;;;;;;;;;;;;;;;;;;;;
2023/10/08 05:10:12;;;;;;;3.30;3.10;;;12.00;81.60;;;;;;5016483;28;20037;-90
2023/10/08 05:12:45;;;;;;;3.85;3.65;;;12.00;82.10;;;;;;5016944;28;20034;-90
2023/10/08 05:20:30;;;;;;;2.85;2.65;;;12.00;83.00;;;;;;5017391;28;20036;-91
2023/10/08 05:23:05;;;;;;;3.35;3.15;;;11.90;83.50;;;;;;5009631;28;20038;-91
2023/10/08 05:25:57;;;;;;;3.65;3.35;;;12.00;83.80;;;;;;5015722;28;20038;-91
2023/10/08 05:28:26;;;;;;;3.25;2.95;;;12.00;84.20;;;;;;5008205;28;20021;-89
2023/10/08 05:31:11;;;;;;;2.70;2.50;;;11.90;84.30;;;;;;4989142;28;20018;-90
2023/10/08 05:33:59;;;;;;;3.38;3.10;;;11.90;84.50;;;;;;5009498;28;20879;-92
2023/10/08 05:36:35;;;;;;;3.30;3.05;;;11.80;85.00;;;;;;5016839;28;20017;-89
2023/10/08 05:39:16;;;;;;;5.18;4.72;;;11.80;85.10;;;;;;5016836;28;20046;-89
2023/10/08 05:41:51;;;;;;;4.28;3.88;;;11.70;85.20;;;;;;5017261;28;20077;-91
2023/10/08 05:52:14;;;;;;;;;;;;;;;;;;;;;
2023/10/08 06:07:56;;;;;;;3.83;3.58;;;11.80;86.50;;;;;;5015629;28;20377;-91
2023/10/08 06:13:09;;;;;;;3.95;3.65;;;11.90;86.80;;;;;;5013426;28;20061;-92
2023/10/08 06:15:48;;;;;;;;;;;;;;;;;;;;;
2023/10/08 06:18:20;;;;;;;3.75;3.38;;;12.00;86.30;;;;;;5017324;28;20480;-91
2023/10/08 06:20:54;;;;;;;3.03;2.83;;;12.00;86.00;;;;;;5021340;28;20426;-91
2023/10/08 06:23:22;;;;;;;3.65;3.35;;;12.10;86.00;;;;;;5021470;28;20026;-91
2023/10/08 06:26:36;;;;;;;3.40;3.10;;;12.10;85.50;;;;;;4999941;28;20068;-91
2023/10/08 06:28:35;;;;;;;2.95;2.75;;;12.10;85.40;;;;;;5002982;28;20064;-90
2023/10/08 06:31:06;;;;;;;3.63;3.33;;;12.20;85.30;;;;;;5020043;28;20105;-92
2023/10/08 06:33:33;;;;;;;3.03;2.72;;;12.10;85.60;;;;;;5020519;28;20544;-89
2023/10/08 06:36:02;;;;;;;4.45;4.05;;;12.20;85.80;;;;;;5021313;28;20036;-91
2023/10/08 06:38:32;;;;;;;3.83;3.53;;;12.20;86.20;;;;;;5022255;28;20073;-91
2023/10/08 06:44:02;;;;;;;3.72;3.42;;;12.20;86.70;;;;;;5014512;28;20584;-90
2023/10/08 06:46:32;;;;;;;3.75;3.42;;;12.20;86.60;;;;;;5002290;28;20408;-90
2023/10/08 06:48:59;;;;;;;3.97;3.67;;;12.20;86.70;;;;;;4996889;28;20022;-92
2023/10/08 06:51:25;;;;;;;4.15;3.85;;;12.20;87.00;;;;;;5001137;28;20036;-92
2023/10/08 06:53:51;;;;;;;4.22;3.92;;;12.20;87.70;;;;;;5004235;28;20666;-90
2023/10/08 06:56:19;;;;;;;4.50;4.10;;;12.20;88.50;;;;;;4999994;28;20038;-90
2023/10/08 06:58:49;;;;;;;3.65;3.35;;;12.30;88.60;;;;;;4987217;28;20444;-90
2023/10/08 07:01:21;;;;;;;3.05;2.85;;;12.30;88.20;;;;;;5018305;28;20032;-90
2023/10/08 07:03:49;;;;;;;3.65;3.35;;;12.40;88.10;;;;;;5003304;28;20014;-91
2023/10/08 07:06:25;;;;;;;4.15;3.85;;;12.50;88.80;;;;;;4992037;28;20076;-92
2023/10/08 07:08:54;;;;;;;3.88;3.42;;;12.50;88.40;;;;;;5002944;28;20027;-90
2023/10/08 07:11:21;;;;;;;4.03;3.30;;;12.60;88.70;;;;;;5016795;28;20130;-91
2023/10/08 07:13:46;;;;;;;3.35;3.15;;;12.70;89.00;;;;;;5006368;28;20105;-91
2023/10/08 07:16:12;;;;;;;3.95;3.45;;;12.70;88.80;;;;;;5019882;28;20065;-92
2023/10/08 07:18:38;;;;;;;4.43;3.42;;;12.80;88.30;;;;;;5001925;28;20089;-91
2023/10/08 07:21:11;;;;;;;3.80;3.45;;;12.80;88.20;;;;;;4993704;28;20037;-91
2023/10/08 07:23:55;;;;;;;3.72;3.42;;;13.00;87.90;;;;;;5010689;28;20084;-89
2023/10/08 07:26:36;;;;;;;3.83;2.80;;;13.10;87.90;;;;;;5016503;28;20037;-88
2023/10/08 07:29:07;;;;;;;;;;;13.20;87.80;;;;;;5016394;28;20061;-89
2023/10/08 07:31:34;;;;;;;3.72;3.42;;;13.30;87.80;;;;;;5017346;28;19913;-91
2023/10/08 07:34:15;;;;;;;2.58;2.17;;;13.40;87.40;;;;;;5017163;28;20396;-91
2023/10/08 07:36:42;;;;;;;5.05;4.47;;;13.40;86.80;;;;;;5015811;28;20026;-88
2023/10/08 07:39:20;;;;;;;3.28;2.90;;;13.60;86.80;;;;;;4991721;28;20084;-90
2023/10/08 07:41:47;;;;;;;3.70;2.20;;;13.70;85.70;;;;;;5018357;28;20446;-89
2023/10/08 07:44:12;;;;;;;3.88;3.58;;;13.80;84.00;;;;;;5016879;28;20049;-91
2023/10/08 07:46:38;;;;;;;3.53;3.17;;;14.00;84.70;;;;;;5014803;28;20033;-90
2023/10/08 07:49:05;;;;;;;3.75;3.45;;;14.10;83.20;;;;;;5010612;28;20050;-92
2023/10/08 07:51:30;;;;;;;4.03;3.60;;;14.20;81.70;;;;;;5015883;28;20025;-92
2023/10/08 07:53:56;;;;;;;3.33;3.03;;;14.30;81.20;;;;;;5016309;28;20664;-91
2023/10/08 07:56:23;;;;;;;3.47;3.28;;;14.50;79.40;;;;;;5029710;28;20037;-91
2023/10/08 07:58:50;;;;;;;3.80;3.50;;;14.50;79.10;;;;;;5028075;28;20026;-90
2023/10/08 08:01:15;;;;;;;2.75;2.55;;;14.70;77.60;;;;;;5008598;28;20018;-91
2023/10/08 08:03:41;;;;;;;3.85;3.50;;;14.80;76.90;;;;;;5016214;28;20026;-92
2023/10/08 08:06:09;;;;;;;3.15;2.85;;;14.90;76.70;;;;;;4999438;28;20026;-91
2023/10/08 08:08:38;;;;;;;3.80;3.47;;;15.00;74.50;;;;;;5017404;28;20026;-91
2023/10/08 08:11:17;;;;;;;2.90;2.70;;;15.20;75.30;;;;;;5014754;28;20125;-90
2023/10/08 08:13:44;;;;;;;3.58;3.20;;;15.20;74.80;;;;;;5016326;28;20026;-91
2023/10/08 08:16:17;;;;;;;6.00;4.53;;;15.40;73.80;;;;;;4999665;28;20037;-91
2023/10/08 08:18:51;;;;;;;2.10;1.75;;;15.40;73.50;;;;;;5016981;28;20430;-93
2023/10/08 08:21:19;;;;;;;3.08;2.60;;;15.50;74.10;;;;;;4992029;28;20412;-92
2023/10/08 08:23:49;;;;;;;3.17;2.90;;;15.60;71.70;;;;;;5017012;28;20029;-90
2023/10/08 08:26:39;;;;;;;2.60;1.48;;;15.70;71.20;;;;;;4997967;28;20410;-92
2023/10/08 08:29:08;;;;;;;3.40;2.60;;;15.90;72.60;;;;;;5001251;28;20022;-90
2023/10/08 08:31:35;;;;;;;5.45;5.13;;;15.90;71.00;;;;;;4997637;28;20029;-91
2023/10/08 08:34:03;;;;;;;3.47;3.20;;;16.10;71.40;;;;;;4991015;28;20456;-91
2023/10/08 08:36:31;;;;;;;3.80;2.85;;;16.30;71.00;;;;;;5015777;28;20048;-90
2023/10/08 08:38:58;;;;;;;3.42;3.13;;;16.30;71.20;;;;;;5014710;28;20101;-92
2023/10/08 08:41:24;;;;;;;3.70;3.35;;;16.40;70.20;;;;;;5011492;28;20090;-91
2023/10/08 08:43:58;;;;;;;3.75;2.75;;;16.40;70.10;;;;;;5014499;28;20681;-90
2023/10/08 08:46:31;;;;;;;2.78;2.58;;;16.50;70.20;;;;;;5014858;28;20013;-90
2023/10/08 08:49:04;;;;;;;5.72;5.38;;;16.50;69.40;;;;;;5013068;28;20030;-91
2023/10/08 08:51:37;;;;;;;4.18;3.60;;;16.50;68.10;;;;;;5006808;28;20081;-93
2023/10/08 08:54:07;;;;;;;4.85;3.45;;;16.60;67.90;;;;;;5014510;28;20090;-91
2023/10/08 08:56:38;;;;;;;2.63;2.38;;;16.80;68.00;;;;;;5014426;28;20033;-91
2023/10/08 08:59:11;;;;;;;4.20;3.90;;;17.00;67.30;;;;;;5015286;28;20500;-91
2023/10/08 09:01:38;;;;;;;4.30;4.00;;;17.10;68.50;;;;;;5014329;28;20025;-89
2023/10/08 09:04:05;;;;;;;3.60;3.30;;;17.20;68.00;;;;;;5015423;28;20109;-90
2023/10/08 09:06:37;;;;;;;2.67;2.47;;;17.30;67.60;;;;;;4997349;28;20033;-91
2023/10/08 09:09:23;;;;;;;2.45;1.73;;;17.40;64.70;;;;;;5013241;28;20448;-91
2023/10/08 09:11:52;;;;;;;3.97;3.67;;;17.60;65.50;;;;;;4996252;28;20026;-91
2023/10/08 09:14:25;;;;;;;4.55;4.25;;;17.60;63.60;;;;;;5014244;28;20503;-91
2023/10/08 09:16:54;;;;;;;4.32;4.05;;;17.70;64.60;;;;;;5014686;28;20175;-92
2023/10/08 09:19:22;;;;;;;3.63;3.33;;;17.90;65.60;;;;;;5006156;28;20519;-90
2023/10/08 09:22:08;;;;;;;4.38;3.42;;;18.10;64.30;;;;;;5015613;28;20030;-89
2023/10/08 09:24:36;;;;;;;3.22;2.35;;;18.30;62.90;;;;;;5002894;28;20473;-91
2023/10/08 09:27:06;;;;;;;4.07;3.78;;;18.30;63.50;;;;;;5013434;28;20044;-91
2023/10/08 09:29:38;;;;;;;3.53;3.22;;;18.40;63.40;;;;;;5013848;28;20082;-91
2023/10/08 09:32:05;;;;;;;2.72;2.47;;;18.60;63.20;;;;;;5014104;28;20053;-90
2023/10/08 09:34:32;;;;;;;2.63;2.40;;;18.80;62.00;;;;;;5014467;28;20033;-91
2023/10/08 09:36:59;;;;;;;3.47;3.17;;;19.00;62.10;;;;;;5013564;28;20054;-90
2023/10/08 09:39:28;;;;;;;4.70;3.33;;;19.20;60.00;;;;;;5005688;28;20029;-91
2023/10/08 09:41:57;;;;;;;3.42;2.92;;;19.20;59.70;;;;;;5013748;28;20821;-90
2023/10/08 09:44:24;;;;;;;2.72;2.53;;;19.40;59.90;;;;;;5014088;28;20034;-89
2023/10/08 09:47:04;;;;;;;4.20;3.90;;;19.60;60.10;;;;;;5014075;28;20033;-88
2023/10/08 09:49:43;;;;;;;4.20;3.90;;;19.70;59.10;;;;;;5015907;28;20029;-83
2023/10/08 09:52:10;;;;;;;3.33;3.10;;;19.90;58.30;;;;;;5010457;28;20022;-89
2023/10/08 09:55:02;;;;;;;3.50;2.35;;;20.10;57.80;;;;;;5016440;28;20032;-91
2023/10/08 09:57:28;;;;;;;2.85;2.65;;;20.20;56.50;;;;;;5021742;28;20030;-91
2023/10/08 09:59:54;;;;;;;2.67;2.47;;;20.30;55.10;;;;;;5026166;28;20018;-91
2023/10/08 10:02:22;;;;;;;3.10;2.85;;;20.40;55.30;;;;;;5025801;28;20101;-91
2023/10/08 10:04:52;;;;;;;2.78;2.15;;;20.50;54.90;;;;;;5016085;28;20395;-91
2023/10/08 10:07:19;;;;;;;3.05;2.80;;;20.70;55.10;;;;;;5021407;28;20018;-90
2023/10/08 10:09:46;;;;;;;3.65;3.15;;;20.90;54.40;;;;;;5016476;28;20094;-90
2023/10/08 10:12:12;;;;;;;;;;;20.90;54.50;;;;;;5018602;28;20046;-91
2023/10/08 10:14:42;;;;;;;2.92;2.58;;;21.10;53.60;;;;;;5020990;28;19910;-90
2023/10/08 10:17:10;;;;;;;3.42;2.65;;;21.10;54.30;;;;;;5023162;28;20041;-90
2023/10/08 10:19:38;;;;;;;3.55;3.30;;;21.40;54.20;;;;;;5023210;28;20106;-90
2023/10/08 10:22:05;;;;;;;4.82;4.40;;;21.60;54.20;;;;;;5023206;28;20037;-91
2023/10/08 10:24:41;;;;;;;3.63;2.83;;;21.60;53.80;;;;;;5034060;28;20073;-91
2023/10/08 10:27:15;;;;;;;3.15;2.72;;;21.70;53.60;;;;;;5029494;28;20029;-90
2023/10/08 10:29:44;;;;;;;3.08;2.78;;;21.80;53.10;;;;;;5039626;28;20024;-91
2023/10/08 10:32:15;;;;;;;2.95;2.63;;;22.10;54.10;;;;;;5039097;28;20014;-90
2023/10/08 10:34:42;;;;;;;3.25;2.78;;;22.20;52.80;;;;;;5039253;28;20030;-89
2023/10/08 10:37:22;;;;;;;4.85;4.20;;;22.00;53.40;;;;;;5018493;28;20132;-91
2023/10/08 10:39:55;;;;;;;;;;;22.20;53.70;;;;;;5024975;28;20069;-91
2023/10/08 10:42:21;;;;;;;2.88;2.67;;;22.20;53.00;;;;;;5022185;28;19943;-90
2023/10/08 10:44:53;;;;;;;4.55;3.08;;;22.10;52.40;;;;;;5002235;28;20564;-90
2023/10/08 10:52:34;;;;;;;4.18;3.63;;;22.40;52.50;;;;;;5023124;28;20038;-91
2023/10/08 10:57:56;;;;;;;;;;;;;;;;;;;;;
2023/10/08 11:03:02;;;;;;;2.08;1.85;;;23.00;52.10;;;;;;5030770;28;20029;-92
2023/10/08 11:05:30;;;;;;;3.05;2.60;;;23.20;49.50;;;;;;5030651;28;20030;-92
2023/10/08 11:08:04;;;;;;;3.90;1.65;;;23.30;49.20;;;;;;5032088;28;20349;-91
2023/10/08 11:10:34;;;;;;;4.60;3.05;;;23.40;50.50;;;;;;5030427;28;20093;-91
2023/10/08 11:13:01;;;;;;;2.65;2.45;;;23.30;48.80;;;;;;5030109;28;20085;-92
2023/10/08 11:15:40;;;;;;;3.78;3.00;;;23.30;48.50;;;;;;5009987;28;20038;-91
2023/10/08 11:18:10;;;;;;;3.55;2.55;;;23.30;50.20;;;;;;5022938;28;20032;-90
2023/10/08 11:20:44;;;;;;;4.47;2.60;;;23.70;48.00;;;;;;5023390;28;20029;-91
2023/10/08 11:23:19;;;;;;;3.65;3.28;;;23.70;47.40;;;;;;5004152;28;20026;-91
2023/10/08 11:25:55;;;;;;;3.45;2.40;;;23.80;47.10;;;;;;5021149;28;20029;-91
2023/10/08 11:28:20;;;;;;;3.28;2.92;;;24.00;47.60;;;;;;5020822;28;20030;-91
2023/10/08 11:30:51;;;;;;;4.45;2.42;;;23.90;45.70;;;;;;5019800;28;20022;-91
2023/10/08 11:33:17;;;;;;;2.92;2.72;;;23.50;45.20;;;;;;5021135;28;20036;-91
2023/10/08 11:36:02;;;;;;;2.45;1.98;;;23.70;46.30;;;;;;5020880;28;20081;-90
2023/10/08 11:38:38;;;;;;;2.72;2.28;;;23.80;45.30;;;;;;5013548;28;20037;-91
2023/10/08 11:41:20;;;;;;;3.50;3.05;;;23.70;45.10;;;;;;4992653;28;20052;-90
2023/10/08 11:43:53;;;;;;;3.15;2.63;;;23.70;45.70;;;;;;5021099;28;20025;-90
2023/10/08 11:46:40;;;;;;;2.88;2.58;;;24.00;45.50;;;;;;5022404;28;20599;-91
2023/10/08 11:49:06;;;;;;;2.78;2.40;;;24.10;44.30;;;;;;5022067;28;20045;-91
2023/10/08 11:51:33;;;;;;;3.20;2.70;;;24.30;44.30;;;;;;5021989;28;20036;-91
2023/10/08 11:54:05;;;;;;;2.55;2.35;;;24.40;43.70;;;;;;5022737;28;20021;-91
2023/10/08 11:56:33;;;;;;;2.97;2.42;;;24.40;44.00;;;;;;5024054;28;20077;-90
2023/10/08 11:59:08;;;;;;;4.20;2.95;;;24.60;43.10;;;;;;5022361;28;20500;-91
2023/10/08 12:01:35;;;;;;;5.05;2.08;;;24.70;42.80;;;;;;5010253;28;20018;-90
2023/10/08 12:04:01;;;;;;;2.92;2.63;;;25.00;42.60;;;;;;5011302;28;20022;-91
2023/10/08 12:06:30;;;;;;;2.90;2.60;;;25.00;42.70;;;;;;5021372;28;20030;-91
2023/10/08 12:08:58;;;;;;;2.92;2.72;;;25.40;42.20;;;;;;5014405;28;20022;-91
2023/10/08 12:11:31;;;;;;;2.72;2.20;;;25.40;42.70;;;;;;5021591;28;20042;-91
2023/10/08 12:14:02;;;;;;;3.42;2.80;;;25.60;42.10;;;;;;5020616;28;20061;-90
2023/10/08 12:16:35;;;;;;;3.20;2.67;;;25.70;42.00;;;;;;4982243;28;20065;-92
2023/10/08 12:19:01;;;;;;;4.00;2.00;;;25.60;41.60;;;;;;5014597;28;20112;-91
2023/10/08 12:21:30;;;;;;;2.72;1.75;;;25.70;41.50;;;;;;5019687;28;20099;-91
2023/10/08 12:23:58;;;;;;;3.30;2.40;;;25.80;41.00;;;;;;5019170;28;20033;-93
2023/10/08 12:26:23;;;;;;;2.70;2.15;;;25.70;42.10;;;;;;5011215;28;20037;-91
2023/10/08 12:28:50;;;;;;;2.67;1.63;;;25.90;40.80;;;;;;5017896;28;20018;-92
2023/10/08 12:31:16;;;;;;;2.65;2.22;;;26.30;40.60;;;;;;5016387;28;20052;-92
2023/10/08 12:33:43;;;;;;;3.00;1.90;;;26.40;40.10;;;;;;5015631;28;20034;-92
2023/10/08 12:36:10;;;;;;;3.80;2.55;;;26.30;40.50;;;;;;5015926;28;20025;-92
2023/10/08 12:38:36;;;;;;;3.53;2.40;;;26.60;39.60;;;;;;5013839;28;20073;-91
2023/10/08 12:41:11;;;;;;;3.80;2.28;;;26.80;39.20;;;;;;4996994;28;20026;-91
2023/10/08 12:43:38;;;;;;;4.82;3.50;;;26.60;39.90;;;;;;5019659;28;20022;-91
2023/10/08 12:46:04;;;;;;;;;;;26.90;38.30;;;;;;5019469;28;20026;-92
2023/10/08 12:48:30;;;;;;;7.45;2.70;;;26.30;39.50;;;;;;5018794;28;20025;-89
2023/10/08 12:50:59;;;;;;;3.65;2.58;;;26.60;39.00;;;;;;5017914;28;20077;-88
2023/10/08 12:53:38;;;;;;;3.85;3.08;;;26.60;39.00;;;;;;5020165;28;20022;-84
2023/10/08 12:56:14;;;;;;;4.90;2.85;;;26.90;38.80;;;;;;5021299;28;20033;-91
2023/10/08 12:58:41;;;;;;;3.25;3.05;;;27.30;39.00;;;;;;5016716;28;20484;-89
2023/10/08 13:01:09;;;;;;;;;;;27.60;37.40;;;;;;5012778;28;20018;-91
2023/10/08 13:03:41;;;;;;;3.25;2.38;;;28.00;36.70;;;;;;5010087;28;19916;-92
2023/10/08 13:06:14;;;;;;;2.75;2.30;;;27.90;36.50;;;;;;5014107;28;20052;-92
2023/10/08 13:08:41;;;;;;;2.50;2.28;;;28.00;36.60;;;;;;5018881;28;20105;-91
2023/10/08 13:11:06;;;;;;;1.73;1.60;;;28.40;36.60;;;;;;5018580;28;20022;-91
2023/10/08 13:13:33;;;;;;;4.65;2.08;;;28.60;35.90;;;;;;5017704;28;20037;-92
2023/10/08 13:16:02;;;;;;;3.40;2.08;;;28.70;35.60;;;;;;5016947;28;20026;-91
2023/10/08 13:18:29;;;;;;;4.25;2.38;;;28.70;35.40;;;;;;5017459;28;20381;-92
2023/10/08 13:20:55;;;;;;;3.58;2.30;;;28.40;35.80;;;;;;5001142;28;20021;-89
2023/10/08 13:23:23;;;;;;;4.53;1.90;;;27.70;37.10;;;;;;5016566;28;20091;-92
2023/10/08 13:25:55;;;;;;;3.05;2.15;;;27.70;37.30;;;;;;5016780;28;20322;-91
2023/10/08 13:28:26;;;;;;;5.28;2.20;;;28.30;36.20;;;;;;5015060;28;20085;-89
2023/10/08 13:30:54;;;;;;;4.30;2.45;;;28.40;35.50;;;;;;4999646;28;20030;-91
2023/10/08 13:33:22;;;;;;;2.85;2.55;;;28.60;35.10;;;;;;5001579;28;20026;-92
2023/10/08 13:35:49;;;;;;;3.97;2.47;;;29.10;35.70;;;;;;5015875;28;20033;-92
2023/10/08 13:38:23;;;;;;;3.05;2.63;;;29.00;36.20;;;;;;5014822;28;20128;-92
2023/10/08 13:41:06;;;;;;;3.50;2.38;;;28.70;34.30;;;;;;5017692;28;20030;-92
2023/10/08 13:43:33;;;;;;;4.68;2.30;;;28.50;35.40;;;;;;5012680;28;20543;-90
2023/10/08 13:46:08;;;;;;;3.13;1.73;;;28.80;35.80;;;;;;5020051;28;20075;-91
2023/10/08 13:48:38;;;;;;;2.35;1.50;;;29.50;34.70;;;;;;5011583;28;20018;-92
2023/10/08 13:51:05;;;;;;;3.50;2.60;;;29.70;33.80;;;;;;5004069;28;20433;-92
2023/10/08 13:53:36;;;;;;;2.83;2.50;;;29.80;34.50;;;;;;5017487;28;20032;-91
2023/10/08 13:56:04;;;;;;;3.08;2.78;;;29.70;34.80;;;;;;5017671;28;20036;-92
2023/10/08 13:58:35;;;;;;;3.33;3.03;;;29.90;33.80;;;;;;5017156;28;20018;-91
2023/10/08 14:01:01;;;;;;;3.53;2.00;;;29.80;33.40;;;;;;5017267;28;20620;-91
2023/10/08 14:03:30;;;;;;;3.35;2.08;;;29.50;34.70;;;;;;5020270;28;20036;-92
2023/10/08 14:06:04;;;;;;;2.80;2.15;;;29.90;32.90;;;;;;5016437;28;20032;-91
2023/10/08 14:08:30;;;;;;;2.88;2.03;;;30.00;33.10;;;;;;5015228;28;20030;-91
2023/10/08 14:11:02;;;;;;;2.60;2.30;;;30.50;32.80;;;;;;4997326;28;20018;-92
2023/10/08 14:13:31;;;;;;;2.60;2.40;;;30.60;32.80;;;;;;5017869;28;20084;-92
2023/10/08 14:15:57;;;;;;;3.28;1.85;;;30.40;32.60;;;;;;5024605;28;20492;-91
2023/10/08 14:18:28;;;;;;;2.95;1.90;;;30.20;32.50;;;;;;5017070;28;20036;-90